KSNY/SNY METAR and TAF weather

Enter ICAO airport designator
Station Type Date Time Source
KSNY METAR 2019/08/22 19:53 UTC NOAA

KSNY 221953Z AUTO 15019G26KT 10SM FEW036 28/16 A2998 RMK AO2 PK WND 16026/1948 SLP101 T02780156


Station Type Date Time Source
KSNY Decoded METAR 2019/08/22 19:53 UTC NOAA

Station name not available
Aug 22, 2019 - 03:53 PM EDT / 2019.08.22 1953 UTC
Wind: from the SSE (150 degrees) at 22 MPH (19 KT) gusting to 30 MPH (26 KT):0
Visibility: 10 mile(s):0
Sky conditions: mostly clear
Temperature: 82.0 F (27.8 C)
Dew Point: 60.1 F (15.6 C)
Relative Humidity: 47%
Pressure (altimeter): 29.98 in. Hg (1015 hPa)
ob: KSNY 221953Z AUTO 15019G26KT 10SM FEW036 28/16 A2998 RMK AO2 PK WND 16026/1948 SLP101 T02780156
cycle: 20

Station Type Date Time Source
KSNY TAF 2019/08/22 18:59 UTC NOAA

TAF KSNY 221756Z 2218/2318 17015G25KT P6SM SCT040
FM230000 16017G27KT P6SM VCTS SCT070CB BKN250
TEMPO 2300/2303 16015G30KT 6SM TSRA BKN060CB OVC100
FM230800 16013KT P6SM OVC250
FM231300 16008KT P6SM OVC025
FM231600 16011KT P6SM SCT050

Example: see airport list